Time,TemperatureF,DewpointF,PressureIn,WindDirection,WindDirectionDegrees,WindSpeedMPH,WindSpeedGustMPH,Humidity,HourlyPrecipIn,Conditions,Clouds,dailyrainin,SoftwareType,DateUTC
2013-07-05 00:02:00,60.6,33.5,29.96,North,0,4.6,4.6,36,0.00,CLR,SCT,0.00,WeatherDisplay:10.37,2013-07-05 07:02:00,
2013-07-05 00:07:00,60.4,33.3,29.96,North,0,2.3,2.3,36,0.00,CLR,SCT,0.00,WeatherDisplay:10.37,2013-07-05 07:07:00,
2013-07-05 00:13:00,59.9,32.9,29.96,North,0,3.5,3.5,36,0.00,CLR,SCT,0.00,WeatherDisplay:10.37,2013-07-05 07:13:00,
2013-07-05 00:18:00,59.7,32.7,29.96,North,0,3.5,3.5,36,0.00,CLR,SCT,0.00,WeatherDisplay:10.37,2013-07-05 07:18:00,
2013-07-05 00:23:00,59.4,32.4,29.96,North,0,2.3,0.0,36,0.00,CLR,SCT,0.00,WeatherDisplay:10.37,2013-07-05 07:23:00,
2013-07-05 00:28:00,59.2,32.2,29.96,North,0,0.0,0.0,36,0.00,CLR,SCT,0.00,WeatherDisplay:10.37,2013-07-05 07:28:00,
2013-07-05 00:33:00,58.6,32.4,29.96,North,0,0.0,0.0,37,0.00,CLR,SCT,0.00,WeatherDisplay:10.37,2013-07-05 07:33:00,
2013-07-05 00:38:00,58.5,32.3,29.96,North,0,2.3,0.0,37,0.00,CLR,SCT,0.00,WeatherDisplay:10.37,2013-07-05 07:38:00,
2013-07-05 00:44:00,58.3,32.8,29.93,North,0,0.0,0.0,38,0.00,CLR,SCT,0.00,WeatherDisplay:10.37,2013-07-05 07:44:00,
2013-07-05 00:49:00,57.9,32.4,29.93,North,0,0.0,0.0,38,0.00,CLR,SCT,0.00,WeatherDisplay:10.37,2013-07-05 07:49:00,
2013-07-05 00:54:00,57.4,32.0,29.93,North,0,3.6,3.6,38,0.00,CLR,SCT,0.00,WeatherDisplay:10.37,2013-07-05 07:54:00,
2013-07-05 00:59:00,57.2,32.4,29.93,North,0,3.5,3.5,39,0.00,CLR,SCT,0.00,WeatherDisplay:10.37,2013-07-05 07:59:00,
2013-07-05 01:04:00,57.2,32.4,29.93,North,0,5.8,5.8,39,0.00,CLR,SCT,0.00,WeatherDisplay:10.37,2013-07-05 08:04:00,
2013-07-05 01:09:00,56.8,32.1,29.93,North,0,3.5,3.5,39,0.00,CLR,SCT,0.00,WeatherDisplay:10.37,2013-07-05 08:09:00,
2013-07-05 01:15:00,56.7,32.0,29.93,North,0,3.6,3.6,39,0.00,CLR,SCT,0.00,WeatherDisplay:10.37,2013-07-05 08:15:00,
2013-07-05 01:20:00,56.5,31.8,29.93,North,0,3.5,3.5,39,0.00,CLR,SCT,0.00,WeatherDisplay:10.37,2013-07-05 08:20:00,
2013-07-05 01:25:00,56.1,31.5,29.93,North,0,0.0,0.0,39,0.00,CLR,SCT,0.00,WeatherDisplay:10.37,2013-07-05 08:25:00,
2013-07-05 01:30:00,55.6,31.6,29.93,North,0,0.0,0.0,40,0.00,CLR,SCT,0.00,WeatherDisplay:10.37,2013-07-05 08:30:00,
2013-07-05 01:35:00,54.9,32.2,29.93,North,0,0.0,0.0,42,0.00,CLR,SCT,0.00,WeatherDisplay:10.37,2013-07-05 08:35:00,
2013-07-05 01:40:00,54.5,32.4,29.93,North,0,0.0,0.0,43,0.00,CLR,SCT,0.00,WeatherDisplay:10.37,2013-07-05 08:40:00,
2013-07-05 01:45:00,54.3,32.8,29.93,North,0,0.0,0.0,44,0.00,CLR,SCT,0.00,WeatherDisplay:10.37,2013-07-05 08:45:00,
2013-07-05 01:50:00,54.0,33.6,29.93,North,0,0.0,0.0,46,0.00,CLR,SCT,0.00,WeatherDisplay:10.37,2013-07-05 08:50:00,
2013-07-05 01:56:00,53.6,33.3,29.93,North,0,2.7,0.0,46,0.00,CLR,SCT,0.00,WeatherDisplay:10.37,2013-07-05 08:56:00,
2013-07-05 02:01:00,53.6,33.8,29.93,North,0,0.0,0.0,47,0.00,CLR,SCT,0.00,WeatherDisplay:10.37,2013-07-05 09:01:00,
2013-07-05 02:06:00,53.2,33.5,29.93,North,0,0.0,0.0,47,0.00,CLR,SCT,0.00,WeatherDisplay:10.37,2013-07-05 09:06:00,
2013-07-05 02:11:00,53.1,33.9,29.93,North,0,0.0,0.0,48,0.00,CLR,SCT,0.00,WeatherDisplay:10.37,2013-07-05 09:11:00,
2013-07-05 02:17:00,52.7,33.0,29.93,North,0,3.5,3.5,47,0.00,CLR,SCT,0.00,WeatherDisplay:10.37,2013-07-05 09:17:00,
2013-07-05 02:22:00,52.2,33.0,29.93,North,0,3.5,3.5,48,0.00,CLR,SCT,0.00,WeatherDisplay:10.37,2013-07-05 09:22:00,
2013-07-05 02:27:00,51.8,32.7,29.93,North,0,0.0,0.0,48,0.00,CLR,SCT,0.00,WeatherDisplay:10.37,2013-07-05 09:27:00,
2013-07-05 02:32:00,51.6,33.1,29.93,North,0,0.0,0.0,49,0.00,CLR,SCT,0.00,WeatherDisplay:10.37,2013-07-05 09:32:00,
2013-07-05 02:37:00,51.6,32.6,29.93,North,0,0.0,0.0,48,0.00,CLR,SCT,0.00,WeatherDisplay:10.37,2013-07-05 09:37:00,
2013-07-05 02:43:00,51.6,32.6,29.93,North,0,0.0,0.0,48,0.00,CLR,SCT,0.00,WeatherDisplay:10.37,2013-07-05 09:43:00,
2013-07-05 02:48:00,51.1,33.1,29.93,North,0,0.0,0.0,50,0.00,CLR,SCT,0.00,WeatherDisplay:10.37,2013-07-05 09:48:00,
2013-07-05 02:53:00,50.5,32.6,29.93,North,0,3.5,3.6,50,0.00,CLR,SCT,0.00,WeatherDisplay:10.37,2013-07-05 09:53:00,
2013-07-05 02:59:00,50.4,32.9,29.93,North,0,3.5,3.5,51,0.00,CLR,SCT,0.00,WeatherDisplay:10.37,2013-07-05 09:59:00,
2013-07-05 03:04:00,50.2,33.2,29.93,North,0,3.5,3.5,52,0.00,CLR,SCT,0.00,WeatherDisplay:10.37,2013-07-05 10:04:00,
2013-07-05 03:09:00,49.8,32.9,29.93,North,0,3.5,3.6,52,0.00,CLR,SCT,0.00,WeatherDisplay:10.37,2013-07-05 10:09:00,
2013-07-05 03:14:00,49.8,32.9,29.93,North,0,4.0,4.0,52,0.00,CLR,SCT,0.00,WeatherDisplay:10.37,2013-07-05 10:14:00,
2013-07-05 03:20:00,49.6,32.7,29.93,SSW,192,3.6,3.6,52,0.00,CLR,SCT,0.00,WeatherDisplay:10.37,2013-07-05 10:20:00,
2013-07-05 03:25:00,49.5,32.1,29.93,SSW,192,2.7,2.7,51,0.00,CLR,SCT,0.00,WeatherDisplay:10.37,2013-07-05 10:25:00,
2013-07-05 03:30:00,49.3,31.9,29.93,SSW,192,3.5,3.5,51,0.00,CLR,SCT,0.00,WeatherDisplay:10.37,2013-07-05 10:30:00,
2013-07-05 03:35:00,49.1,31.7,29.93,SSW,192,0.0,0.0,51,0.00,CLR,SCT,0.00,WeatherDisplay:10.37,2013-07-05 10:35:00,
2013-07-05 03:41:00,49.1,32.2,29.93,SSW,192,3.5,3.5,52,0.00,CLR,SCT,0.00,WeatherDisplay:10.37,2013-07-05 10:41:00,
2013-07-05 03:46:00,48.7,31.9,29.93,SSW,192,2.3,0.0,52,0.00,CLR,SCT,0.00,WeatherDisplay:10.37,2013-07-05 10:46:00,
2013-07-05 03:52:00,48.6,31.2,29.93,SSW,192,2.0,3.0,51,0.00,CLR,SCT,0.00,WeatherDisplay:10.37,2013-07-05 10:52:00,
2013-07-05 03:57:00,48.2,31.9,29.93,SSW,192,2.3,2.3,53,0.00,CLR,SCT,0.00,WeatherDisplay:10.37,2013-07-05 10:57:00,
2013-07-05 04:02:00,48.0,32.6,29.90,SSW,192,0.0,0.0,55,0.00,CLR,SCT,0.00,WeatherDisplay:10.37,2013-07-05 11:02:00,
2013-07-05 04:08:00,48.0,32.2,29.90,SSW,192,0.0,0.0,54,0.00,CLR,SCT,0.00,WeatherDisplay:10.37,2013-07-05 11:08:00,
2013-07-05 04:14:00,48.0,32.2,29.93,SSW,192,0.0,0.0,54,0.00,CLR,SCT,0.00,WeatherDisplay:10.37,2013-07-05 11:14:00,
2013-07-05 04:19:00,47.7,30.4,29.93,SSW,192,0.0,0.0,51,0.00,CLR,SCT,0.00,WeatherDisplay:10.37,2013-07-05 11:19:00,
2013-07-05 04:25:00,47.3,30.5,29.93,SSW,192,3.5,0.0,52,0.00,CLR,SCT,0.00,WeatherDisplay:10.37,2013-07-05 11:25:00,
2013-07-05 04:30:00,46.8,31.4,29.90,SSW,192,3.5,3.6,55,0.00,CLR,SCT,0.00,WeatherDisplay:10.37,2013-07-05 11:30:00,
2013-07-05 04:36:00,46.4,31.1,29.90,SSW,192,0.0,0.0,55,0.00,CLR,SCT,0.00,WeatherDisplay:10.37,2013-07-05 11:36:00,
2013-07-05 04:41:00,46.4,32.0,29.90,SSW,193,0.0,0.0,57,0.00,CLR,SCT,0.00,WeatherDisplay:10.37,2013-07-05 11:41:00,
2013-07-05 04:46:00,46.2,31.4,29.93,SW,230,0.0,0.0,56,0.00,CLR,SCT,0.00,WeatherDisplay:10.37,2013-07-05 11:46:00,
2013-07-05 04:52:00,46.2,31.4,29.93,SW,230,0.0,0.0,56,0.00,CLR,SCT,0.00,WeatherDisplay:10.37,2013-07-05 11:52:00,
2013-07-05 04:57:00,46.2,31.8,29.93,SW,230,0.0,0.0,57,0.00,CLR,SCT,0.00,WeatherDisplay:10.37,2013-07-05 11:57:00,
2013-07-05 05:03:00,46.2,31.8,29.93,SW,230,0.0,0.0,57,0.00,CLR,SCT,0.00,WeatherDisplay:10.37,2013-07-05 12:03:00,
2013-07-05 05:09:00,45.7,31.3,29.93,SW,228,3.6,3.6,57,0.00,CLR,SCT,0.00,WeatherDisplay:10.37,2013-07-05 12:09:00,
2013-07-05 05:14:00,45.5,32.0,29.93,SW,228,2.3,0.0,59,0.00,CLR,SCT,0.00,WeatherDisplay:10.37,2013-07-05 12:14:00,
2013-07-05 05:20:00,45.5,32.0,29.93,SW,228,0.0,0.0,59,0.00,CLR,SCT,0.00,WeatherDisplay:10.37,2013-07-05 12:20:00,
2013-07-05 05:25:00,45.3,31.8,29.93,SW,228,0.0,0.0,59,0.00,CLR,SCT,0.00,WeatherDisplay:10.37,2013-07-05 12:25:00,
2013-07-05 05:30:00,45.1,31.7,29.93,SW,228,0.0,0.0,59,0.00,CLR,SCT,0.00,WeatherDisplay:10.37,2013-07-05 12:30:00,
2013-07-05 05:35:00,45.1,32.1,29.93,SW,228,0.0,0.0,60,0.00,CLR,SCT,0.00,WeatherDisplay:10.37,2013-07-05 12:35:00,
2013-07-05 05:40:00,45.0,31.5,29.93,SW,228,0.0,0.0,59,0.00,CLR,SCT,0.00,WeatherDisplay:10.37,2013-07-05 12:40:00,
2013-07-05 05:46:00,44.6,31.1,29.93,SW,228,0.0,0.0,59,0.00,CLR,SCT,0.00,WeatherDisplay:10.37,2013-07-05 12:46:00,
2013-07-05 05:51:00,44.2,31.2,29.93,SW,228,0.0,0.0,60,0.00,CLR,SCT,0.00,WeatherDisplay:10.37,2013-07-05 12:51:00,
2013-07-05 05:57:00,43.7,31.9,29.93,SW,228,3.5,3.5,63,0.00,CLR,SCT,0.00,WeatherDisplay:10.37,2013-07-05 12:57:00,
2013-07-05 06:02:00,43.3,31.6,29.93,SW,228,0.0,0.0,63,0.00,CLR,SCT,0.00,WeatherDisplay:10.37,2013-07-05 13:02:00,
2013-07-05 06:07:00,43.3,32.0,29.93,SW,228,0.0,0.0,64,0.00,CLR,SCT,0.00,WeatherDisplay:10.37,2013-07-05 13:07:00,
2013-07-05 06:12:00,43.3,32.0,29.93,SW,228,0.0,0.0,64,0.00,CLR,SCT,0.00,WeatherDisplay:10.37,2013-07-05 13:12:00,
2013-07-05 06:17:00,43.2,31.4,29.93,SW,228,0.0,0.0,63,0.00,CLR,SCT,0.00,WeatherDisplay:10.37,2013-07-05 13:17:00,
2013-07-05 06:22:00,43.2,31.8,29.93,SW,228,0.0,0.0,64,0.00,CLR,SCT,0.00,WeatherDisplay:10.37,2013-07-05 13:22:00,
2013-07-05 06:28:00,43.2,32.6,29.93,SW,228,0.0,0.0,66,0.00,CLR,SCT,0.00,WeatherDisplay:10.37,2013-07-05 13:28:00,
2013-07-05 06:33:00,43.3,33.1,29.93,SW,228,0.0,0.0,67,0.00,CLR,SCT,0.00,WeatherDisplay:10.37,2013-07-05 13:33:00,
2013-07-05 06:38:00,43.3,32.7,29.93,SW,228,0.0,0.0,66,0.00,CLR,SCT,0.00,WeatherDisplay:10.37,2013-07-05 13:38:00,
2013-07-05 06:44:00,43.3,32.4,29.93,SW,228,0.0,0.0,65,0.00,CLR,SCT,0.00,WeatherDisplay:10.37,2013-07-05 13:44:00,
2013-07-05 06:49:00,43.2,32.9,29.93,SW,228,0.0,0.0,67,0.00,CLR,SCT,0.00,WeatherDisplay:10.37,2013-07-05 13:49:00,
2013-07-05 06:54:00,43.3,33.1,29.93,SW,228,0.0,0.0,67,0.00,CLR,SCT,0.00,WeatherDisplay:10.37,2013-07-05 13:54:00,
2013-07-05 06:59:00,43.5,33.3,29.93,SW,228,0.0,0.0,67,0.00,CLR,SCT,0.00,WeatherDisplay:10.37,2013-07-05 13:59:00,
2013-07-05 07:04:00,43.7,33.5,29.93,SW,228,0.0,0.0,67,0.00,CLR,SCT,0.00,WeatherDisplay:10.37,2013-07-05 14:04:00,
2013-07-05 07:09:00,44.4,34.1,29.93,SW,228,0.0,0.0,67,0.00,CLR,SCT,0.00,WeatherDisplay:10.37,2013-07-05 14:09:00,
2013-07-05 07:15:00,45.3,35.0,29.93,SW,228,0.0,0.0,67,0.00,CLR,SCT,0.00,WeatherDisplay:10.37,2013-07-05 14:15:00,
2013-07-05 07:20:00,46.2,35.1,29.93,SW,228,0.0,0.0,65,0.00,CLR,SCT,0.00,WeatherDisplay:10.37,2013-07-05 14:20:00,
2013-07-05 07:26:00,46.9,33.3,29.96,SW,228,0.0,0.0,59,0.00,CLR,SCT,0.00,WeatherDisplay:10.37,2013-07-05 14:26:00,
2013-07-05 07:31:00,47.5,33.9,29.96,SW,229,0.0,0.0,59,0.00,CLR,SCT,0.00,WeatherDisplay:10.37,2013-07-05 14:31:00,
2013-07-05 07:36:00,48.4,34.3,29.96,WSW,242,0.0,0.0,58,0.00,CLR,SCT,0.00,WeatherDisplay:10.37,2013-07-05 14:36:00,
2013-07-05 07:41:00,48.9,33.9,29.96,WSW,242,0.0,0.0,56,0.00,CLR,SCT,0.00,WeatherDisplay:10.37,2013-07-05 14:41:00,
2013-07-05 07:46:00,50.0,34.5,29.96,North,0,3.5,3.5,55,0.00,CLR,SCT,0.00,WeatherDisplay:10.37,2013-07-05 14:46:00,
2013-07-05 07:52:00,50.9,34.4,29.96,North,0,3.5,3.5,53,0.00,CLR,SCT,0.00,WeatherDisplay:10.37,2013-07-05 14:52:00,
2013-07-05 07:57:00,51.8,33.7,29.96,North,0,0.0,2.2,50,0.00,CLR,SCT,0.00,WeatherDisplay:10.37,2013-07-05 14:57:00,
2013-07-05 08:02:00,53.2,34.6,29.96,North,0,5.8,5.8,49,0.00,CLR,SCT,0.00,WeatherDisplay:10.37,2013-07-05 15:02:00,
2013-07-05 08:08:00,54.4,34.0,29.96,North,10,3.0,6.0,46,0.00,CLR,SCT,0.00,WeatherDisplay:10.37,2013-07-05 15:08:00,
2013-07-05 08:13:00,55.2,34.8,29.96,North,0,4.6,4.6,46,0.00,CLR,SCT,0.00,WeatherDisplay:10.37,2013-07-05 15:13:00,
2013-07-05 08:18:00,55.9,34.9,29.96,North,0,4.6,4.6,45,0.00,CLR,SCT,0.00,WeatherDisplay:10.37,2013-07-05 15:18:00,
2013-07-05 08:23:00,56.7,34.4,29.96,North,0,4.6,4.6,43,0.00,CLR,SCT,0.00,WeatherDisplay:10.37,2013-07-05 15:23:00,
2013-07-05 08:28:00,57.4,34.5,29.96,North,0,5.8,0.0,42,0.00,CLR,SCT,0.00,WeatherDisplay:10.37,2013-07-05 15:28:00,
2013-07-05 08:33:00,58.1,34.5,29.96,North,0,3.5,3.5,41,0.00,CLR,SCT,0.00,WeatherDisplay:10.37,2013-07-05 15:33:00,
2013-07-05 08:38:00,58.6,34.4,29.96,North,0,3.5,3.5,40,0.00,CLR,SCT,0.00,WeatherDisplay:10.37,2013-07-05 15:38:00,
2013-07-05 08:43:00,59.2,34.9,29.96,North,0,3.5,3.5,40,0.00,CLR,SCT,0.00,WeatherDisplay:10.37,2013-07-05 15:43:00,
2013-07-05 08:48:00,60.1,35.0,29.96,North,0,2.7,0.0,39,0.00,CLR,SCT,0.00,WeatherDisplay:10.37,2013-07-05 15:48:00,
2013-07-05 08:51:00,60.4,34.7,29.96,North,0,5.8,5.8,38,0.00,CLR,SCT,0.00,WeatherDisplay:10.37,2013-07-05 15:51:00,
2013-07-05 08:57:00,61.2,35.3,29.96,North,0,8.1,8.1,38,0.00,CLR,SCT,0.00,WeatherDisplay:10.37,2013-07-05 15:57:00,
2013-07-05 09:03:00,61.9,35.3,29.96,North,0,5.8,5.8,37,0.00,CLR,SCT,0.00,WeatherDisplay:10.37,2013-07-05 16:03:00,
2013-07-05 09:04:00,62.2,35.6,29.96,NE,52,3.5,3.5,37,0.00,CLR,SCT,0.00,WeatherDisplay:10.37,2013-07-05 16:04:00,
2013-07-05 09:09:00,63.0,35.6,29.96,North,0,5.8,5.8,36,0.00,CLR,SCT,0.00,WeatherDisplay:10.37,2013-07-05 16:09:00,
2013-07-05 09:14:00,63.5,35.3,29.96,NNE,18,5.8,5.8,35,0.00,CLR,SCT,0.00,WeatherDisplay:10.37,2013-07-05 16:14:00,
2013-07-05 09:19:00,64.0,35.8,29.96,North,0,8.1,8.1,35,0.00,CLR,SCT,0.00,WeatherDisplay:10.37,2013-07-05 16:19:00,
2013-07-05 09:24:00,64.4,36.1,29.96,North,0,5.8,5.8,35,0.00,CLR,SCT,0.00,WeatherDisplay:10.37,2013-07-05 16:24:00,
2013-07-05 09:29:00,64.9,36.6,29.96,NNE,20,5.8,5.8,35,0.00,CLR,SCT,0.00,WeatherDisplay:10.37,2013-07-05 16:29:00,
2013-07-05 09:35:00,65.8,36.7,29.96,NE,52,8.3,8.3,34,0.00,CLR,SCT,0.00,WeatherDisplay:10.37,2013-07-05 16:35:00,
2013-07-05 09:40:00,66.4,37.1,29.96,NE,47,5.8,5.8,34,0.00,CLR,SCT,0.00,WeatherDisplay:10.37,2013-07-05 16:40:00,
2013-07-05 09:45:00,66.7,37.5,29.96,NNE,29,9.2,9.2,34,0.00,CLR,SCT,0.00,WeatherDisplay:10.37,2013-07-05 16:45:00,
2013-07-05 09:50:00,66.9,37.6,29.96,NE,42,5.8,5.8,34,0.00,CLR,SCT,0.00,WeatherDisplay:10.37,2013-07-05 16:50:00,
2013-07-05 09:55:00,67.5,37.3,29.96,North,0,8.1,8.1,33,0.00,CLR,SCT,0.00,WeatherDisplay:10.37,2013-07-05 16:55:00,
2013-07-05 10:00:00,68.0,37.8,29.96,North,0,5.8,5.8,33,0.00,CLR,SCT,0.00,WeatherDisplay:10.37,2013-07-05 17:00:00,
2013-07-05 10:06:00,68.2,38.0,29.96,North,0,2.3,0.0,33,0.00,CLR,SCT,0.00,WeatherDisplay:10.37,2013-07-05 17:06:00,
2013-07-05 10:11:00,68.9,38.6,29.96,SW,233,3.5,3.5,33,0.00,CLR,SCT,0.00,WeatherDisplay:10.37,2013-07-05 17:11:00,
2013-07-05 10:16:00,69.1,38.8,29.96,WNW,292,5.8,5.8,33,0.00,CLR,SCT,0.00,WeatherDisplay:10.37,2013-07-05 17:16:00,
2013-07-05 10:21:00,69.6,39.2,29.96,WNW,290,5.8,5.8,33,0.00,CLR,SCT,0.00,WeatherDisplay:10.37,2013-07-05 17:21:00,
2013-07-05 10:27:00,70.2,38.9,29.96,NNE,30,8.7,8.7,32,0.00,CLR,SCT,0.00,WeatherDisplay:10.37,2013-07-05 17:27:00,
2013-07-05 10:32:00,71.1,39.7,29.96,NE,35,5.8,5.8,32,0.00,CLR,SCT,0.00,WeatherDisplay:10.37,2013-07-05 17:32:00,
2013-07-05 10:37:00,71.8,40.3,29.96,East,85,5.8,5.8,32,0.00,CLR,SCT,0.00,WeatherDisplay:10.37,2013-07-05 17:37:00,
2013-07-05 10:42:00,72.1,40.6,29.96,NNE,22,3.5,3.5,32,0.00,CLR,SCT,0.00,WeatherDisplay:10.37,2013-07-05 17:42:00,
2013-07-05 10:47:00,72.9,41.3,29.96,North,0,8.1,8.1,32,0.00,CLR,SCT,0.00,WeatherDisplay:10.37,2013-07-05 17:47:00,
2013-07-05 10:52:00,72.7,41.1,29.96,North,0,4.0,4.0,32,0.00,CLR,SCT,0.00,WeatherDisplay:10.37,2013-07-05 17:52:00,
2013-07-05 10:57:00,72.9,41.3,29.93,North,0,9.2,9.2,32,0.00,CLR,SCT,0.00,WeatherDisplay:10.37,2013-07-05 17:57:00,
2013-07-05 11:02:00,73.8,42.0,29.93,West,262,4.6,4.6,32,0.00,CLR,SCT,0.00,WeatherDisplay:10.37,2013-07-05 18:02:00,
2013-07-05 11:07:00,74.3,42.5,29.93,North,0,5.8,5.8,32,0.00,CLR,SCT,0.00,WeatherDisplay:10.37,2013-07-05 18:07:00,
2013-07-05 11:13:00,74.8,42.2,29.93,North,0,8.1,8.1,31,0.00,CLR,SCT,0.00,WeatherDisplay:10.37,2013-07-05 18:13:00,
2013-07-05 11:18:00,75.0,42.3,29.93,North,0,8.1,8.1,31,0.00,CLR,SCT,0.00,WeatherDisplay:10.37,2013-07-05 18:18:00,
2013-07-05 11:23:00,75.9,43.1,29.93,North,0,5.8,5.8,31,0.00,CLR,SCT,0.00,WeatherDisplay:10.37,2013-07-05 18:23:00,
2013-07-05 11:28:00,75.4,42.6,29.93,West,264,4.6,4.6,31,0.00,CLR,SCT,0.00,WeatherDisplay:10.37,2013-07-05 18:28:00,
2013-07-05 11:30:00,75.6,42.8,29.93,WNW,294,3.5,0.0,31,0.00,CLR,SCT,0.00,WeatherDisplay:10.37,2013-07-05 18:30:00,
2013-07-05 11:36:00,76.1,43.3,29.93,North,0,2.3,0.0,31,0.00,CLR,SCT,0.00,WeatherDisplay:10.37,2013-07-05 18:36:00,
2013-07-05 11:41:00,77.0,44.0,29.93,North,0,3.5,3.5,31,0.00,CLR,SCT,0.00,WeatherDisplay:10.37,2013-07-05 18:41:00,
2013-07-05 11:46:00,77.4,44.4,29.93,NE,44,8.1,8.1,31,0.00,CLR,SCT,0.00,WeatherDisplay:10.37,2013-07-05 18:46:00,
2013-07-05 11:51:00,77.7,44.7,29.93,North,0,8.1,8.1,31,0.00,CLR,SCT,0.00,WeatherDisplay:10.37,2013-07-05 18:51:00,
2013-07-05 11:57:00,78.3,45.1,29.93,NE,45,8.1,8.1,31,0.00,CLR,SCT,0.00,WeatherDisplay:10.37,2013-07-05 18:57:00,
2013-07-05 11:59:00,78.4,45.3,29.93,North,0,8.1,8.1,31,0.00,CLR,SCT,0.00,WeatherDisplay:10.37,2013-07-05 18:59:00,
2013-07-05 12:04:00,78.3,45.1,29.93,North,0,8.1,8.1,31,0.00,CLR,SCT,0.00,WeatherDisplay:10.37,2013-07-05 19:04:00,
2013-07-05 12:09:00,78.3,45.1,29.93,North,0,5.8,5.8,31,0.00,CLR,SCT,0.00,WeatherDisplay:10.37,2013-07-05 19:09:00,
2013-07-05 12:15:00,79.0,44.9,29.93,West,265,5.8,5.8,30,0.00,CLR,SCT,0.00,WeatherDisplay:10.37,2013-07-05 19:15:00,
2013-07-05 12:20:00,79.3,45.2,29.93,ENE,73,10.4,10.4,30,0.00,CLR,SCT,0.00,WeatherDisplay:10.37,2013-07-05 19:20:00,
2013-07-05 12:25:00,79.3,45.2,29.93,NE,50,5.8,5.8,30,0.00,CLR,SCT,0.00,WeatherDisplay:10.37,2013-07-05 19:25:00,
2013-07-05 12:30:00,79.5,45.4,29.93,North,0,3.5,3.6,30,0.00,CLR,SCT,0.00,WeatherDisplay:10.37,2013-07-05 19:30:00,
2013-07-05 12:36:00,79.7,45.5,29.93,North,0,11.5,11.5,30,0.00,CLR,SCT,0.00,WeatherDisplay:10.37,2013-07-05 19:36:00,
2013-07-05 12:41:00,79.3,45.2,29.93,NE,56,8.1,8.1,30,0.00,CLR,SCT,0.00,WeatherDisplay:10.37,2013-07-05 19:41:00,
2013-07-05 12:46:00,79.9,45.7,29.93,WNW,286,5.8,5.8,30,0.00,CLR,SCT,0.00,WeatherDisplay:10.37,2013-07-05 19:46:00,
2013-07-05 12:51:00,79.5,45.4,29.93,South,182,5.8,5.8,30,0.00,CLR,SCT,0.00,WeatherDisplay:10.37,2013-07-05 19:51:00,
2013-07-05 12:52:00,79.6,45.4,29.93,WSW,245,3.0,13.0,30,0.00,CLR,SCT,0.00,WeatherDisplay:10.37,2013-07-05 19:52:00,
2013-07-05 12:57:00,79.7,45.5,29.93,North,0,10.4,10.4,30,0.00,CLR,SCT,0.00,WeatherDisplay:10.37,2013-07-05 19:57:00,
2013-07-05 13:02:00,80.2,46.0,29.93,North,0,10.4,10.4,30,0.00,CLR,SCT,0.00,WeatherDisplay:10.37,2013-07-05 20:02:00,
2013-07-05 13:07:00,80.8,46.4,29.93,WNW,290,5.8,5.8,30,0.00,CLR,SCT,0.00,WeatherDisplay:10.37,2013-07-05 20:07:00,
2013-07-05 13:13:00,81.1,46.8,29.93,NNE,23,3.5,0.0,30,0.00,CLR,SCT,0.00,WeatherDisplay:10.37,2013-07-05 20:13:00,
2013-07-05 13:18:00,80.6,46.3,29.93,SSW,203,4.6,4.6,30,0.00,CLR,SCT,0.00,WeatherDisplay:10.37,2013-07-05 20:18:00,
2013-07-05 13:23:00,80.2,46.0,29.93,WSW,252,6.0,10.0,30,0.00,CLR,SCT,0.00,WeatherDisplay:10.37,2013-07-05 20:23:00,
2013-07-05 13:28:00,81.1,46.8,29.90,NE,47,8.3,8.3,30,0.00,CLR,SCT,0.00,WeatherDisplay:10.37,2013-07-05 20:28:00,
2013-07-05 13:29:00,81.1,46.8,29.90,NE,40,8.1,8.1,30,0.00,CLR,SCT,0.00,WeatherDisplay:10.37,2013-07-05 20:29:00,
2013-07-05 13:34:00,81.7,47.2,29.90,North,0,8.1,8.1,30,0.00,CLR,SCT,0.00,WeatherDisplay:10.37,2013-07-05 20:34:00,
2013-07-05 13:39:00,82.4,46.9,29.90,North,0,8.1,8.1,29,0.00,CLR,SCT,0.00,WeatherDisplay:10.37,2013-07-05 20:39:00,
2013-07-05 13:45:00,82.9,47.4,29.90,WNW,286,9.2,9.2,29,0.00,CLR,SCT,0.00,WeatherDisplay:10.37,2013-07-05 20:45:00,
2013-07-05 13:50:00,82.9,47.4,29.90,North,0,8.7,8.7,29,0.00,CLR,SCT,0.00,WeatherDisplay:10.37,2013-07-05 20:50:00,
2013-07-05 13:55:00,82.8,47.3,29.90,North,0,5.8,5.8,29,0.00,CLR,SCT,0.00,WeatherDisplay:10.37,2013-07-05 20:55:00,
2013-07-05 14:00:00,82.6,47.1,29.90,ENE,75,12.7,12.7,29,0.00,CLR,SCT,0.00,WeatherDisplay:10.37,2013-07-05 21:00:00,
2013-07-05 14:05:00,82.2,47.7,29.90,North,0,10.4,10.4,30,0.00,CLR,SCT,0.00,WeatherDisplay:10.37,2013-07-05 21:05:00,
2013-07-05 14:10:00,82.6,47.1,29.90,North,0,4.0,4.0,29,0.00,CLR,SCT,0.00,WeatherDisplay:10.37,2013-07-05 21:10:00,
2013-07-05 14:16:00,82.8,47.3,29.90,North,0,12.7,12.7,29,0.00,CLR,SCT,0.00,WeatherDisplay:10.37,2013-07-05 21:16:00,
2013-07-05 14:21:00,83.1,47.6,29.90,North,10,8.1,8.1,29,0.00,CLR,SCT,0.00,WeatherDisplay:10.37,2013-07-05 21:21:00,
2013-07-05 14:26:00,83.3,47.7,29.90,North,0,8.1,8.1,29,0.00,CLR,SCT,0.00,WeatherDisplay:10.37,2013-07-05 21:26:00,
2013-07-05 14:31:00,83.8,48.2,29.90,North,0,9.2,9.2,29,0.00,CLR,SCT,0.00,WeatherDisplay:10.37,2013-07-05 21:31:00,
2013-07-05 14:36:00,83.7,48.0,29.90,North,0,14.1,14.1,29,0.00,CLR,SCT,0.00,WeatherDisplay:10.37,2013-07-05 21:36:00,
2013-07-05 14:41:00,83.1,47.6,29.90,North,0,13.8,13.8,29,0.00,CLR,SCT,0.00,WeatherDisplay:10.37,2013-07-05 21:41:00,
2013-07-05 14:46:00,82.9,47.4,29.90,North,0,11.5,11.5,29,0.00,CLR,SCT,0.00,WeatherDisplay:10.37,2013-07-05 21:46:00,
2013-07-05 14:52:00,82.9,47.4,29.90,North,0,11.5,11.5,29,0.00,CLR,SCT,0.00,WeatherDisplay:10.37,2013-07-05 21:52:00,
2013-07-05 14:57:00,82.8,47.3,29.90,NNE,32,11.5,11.5,29,0.00,CLR,SCT,0.00,WeatherDisplay:10.37,2013-07-05 21:57:00,
2013-07-05 15:02:00,82.9,47.4,29.90,North,0,9.2,9.2,29,0.00,CLR,SCT,0.00,WeatherDisplay:10.37,2013-07-05 22:02:00,
2013-07-05 15:07:00,82.8,47.3,29.90,North,0,9.2,9.2,29,0.00,CLR,SCT,0.00,WeatherDisplay:10.37,2013-07-05 22:07:00,
2013-07-05 15:12:00,83.1,47.6,29.87,North,0,13.6,13.6,29,0.00,CLR,SCT,0.00,WeatherDisplay:10.37,2013-07-05 22:12:00,
2013-07-05 15:17:00,82.8,47.3,29.87,WNW,289,5.8,5.8,29,0.00,CLR,SCT,0.00,WeatherDisplay:10.37,2013-07-05 22:17:00,
2013-07-05 15:22:00,82.9,47.4,29.87,North,0,11.5,11.5,29,0.00,CLR,SCT,0.00,WeatherDisplay:10.37,2013-07-05 22:22:00,
2013-07-05 15:27:00,83.1,47.6,29.90,NNE,32,12.7,12.7,29,0.00,CLR,SCT,0.00,WeatherDisplay:10.37,2013-07-05 22:27:00,
2013-07-05 15:32:00,83.7,48.0,29.90,North,0,9.2,9.2,29,0.00,CLR,SCT,0.00,WeatherDisplay:10.37,2013-07-05 22:32:00,
2013-07-05 15:37:00,83.3,47.7,29.90,North,0,15.0,15.0,29,0.00,CLR,SCT,0.00,WeatherDisplay:10.37,2013-07-05 22:37:00,
2013-07-05 15:42:00,82.9,47.4,29.87,North,0,12.3,12.3,29,0.00,CLR,SCT,0.00,WeatherDisplay:10.37,2013-07-05 22:42:00,
2013-07-05 15:47:00,83.5,47.9,29.87,North,0,10.4,10.4,29,0.00,CLR,SCT,0.00,WeatherDisplay:10.37,2013-07-05 22:47:00,
2013-07-05 15:53:00,84.2,48.5,29.87,North,0,9.2,9.2,29,0.00,CLR,SCT,0.00,WeatherDisplay:10.37,2013-07-05 22:53:00,
2013-07-05 15:58:00,84.4,48.6,29.87,North,0,15.4,15.4,29,0.00,CLR,SCT,0.00,WeatherDisplay:10.37,2013-07-05 22:58:00,
2013-07-05 16:03:00,84.2,48.5,29.87,North,0,8.1,8.3,29,0.00,CLR,SCT,0.00,WeatherDisplay:10.37,2013-07-05 23:03:00,
2013-07-05 16:08:00,84.0,48.3,29.87,North,0,11.5,11.5,29,0.00,CLR,SCT,0.00,WeatherDisplay:10.37,2013-07-05 23:08:00,
2013-07-05 16:13:00,83.8,48.2,29.87,North,0,11.5,11.5,29,0.00,CLR,SCT,0.00,WeatherDisplay:10.37,2013-07-05 23:13:00,
2013-07-05 16:19:00,84.2,48.5,29.87,North,0,10.4,10.4,29,0.00,CLR,SCT,0.00,WeatherDisplay:10.37,2013-07-05 23:19:00,
2013-07-05 16:24:00,84.7,49.0,29.87,NNE,13,5.8,5.8,29,0.00,CLR,SCT,0.00,WeatherDisplay:10.37,2013-07-05 23:24:00,
2013-07-05 16:29:00,85.5,49.6,29.87,North,0,10.4,10.4,29,0.00,CLR,SCT,0.00,WeatherDisplay:10.37,2013-07-05 23:29:00,
2013-07-05 16:34:00,85.1,49.3,29.87,North,11,12.7,12.7,29,0.00,CLR,SCT,0.00,WeatherDisplay:10.37,2013-07-05 23:34:00,
2013-07-05 16:39:00,84.7,49.0,29.87,NE,47,5.8,5.8,29,0.00,CLR,SCT,0.00,WeatherDisplay:10.37,2013-07-05 23:39:00,
2013-07-05 16:44:00,84.9,49.1,29.87,North,11,11.5,11.5,29,0.00,CLR,SCT,0.00,WeatherDisplay:10.37,2013-07-05 23:44:00,
2013-07-05 16:49:00,85.3,49.4,29.87,North,0,11.5,11.5,29,0.00,CLR,SCT,0.00,WeatherDisplay:10.37,2013-07-05 23:49:00,
2013-07-05 16:54:00,85.1,49.3,29.87,NE,41,8.1,8.1,29,0.00,CLR,SCT,0.00,WeatherDisplay:10.37,2013-07-05 23:54:00,
2013-07-05 16:59:00,84.4,48.6,29.87,North,0,11.5,11.5,29,0.00,CLR,SCT,0.00,WeatherDisplay:10.37,2013-07-05 23:59:00,
2013-07-05 17:04:00,84.4,48.6,29.87,North,0,10.4,10.4,29,0.00,CLR,SCT,0.00,WeatherDisplay:10.37,2013-07-06 00:04:00,
2013-07-05 17:06:00,84.2,48.5,29.87,North,0,12.3,12.3,29,0.00,CLR,SCT,0.00,WeatherDisplay:10.37,2013-07-06 00:06:00,
2013-07-05 17:11:00,83.7,48.0,29.87,NNE,14,15.0,15.0,29,0.00,CLR,SCT,0.00,WeatherDisplay:10.37,2013-07-06 00:11:00,
2013-07-05 17:16:00,83.7,48.0,29.87,North,0,12.7,12.7,29,0.00,CLR,SCT,0.00,WeatherDisplay:10.37,2013-07-06 00:16:00,
2013-07-05 17:21:00,83.7,48.0,29.87,North,0,15.0,15.0,29,0.00,CLR,SCT,0.00,WeatherDisplay:10.37,2013-07-06 00:21:00,
2013-07-05 17:26:00,83.1,47.6,29.87,North,0,13.2,13.2,29,0.00,CLR,SCT,0.00,WeatherDisplay:10.37,2013-07-06 00:26:00,
2013-07-05 17:32:00,82.8,47.3,29.87,North,0,9.2,9.2,29,0.00,CLR,SCT,0.00,WeatherDisplay:10.37,2013-07-06 00:32:00,
2013-07-05 17:37:00,82.8,47.3,29.87,North,0,12.7,12.7,29,0.00,CLR,SCT,0.00,WeatherDisplay:10.37,2013-07-06 00:37:00,
2013-07-05 17:42:00,82.4,46.9,29.87,North,0,12.7,12.7,29,0.00,CLR,SCT,0.00,WeatherDisplay:10.37,2013-07-06 00:42:00,
2013-07-05 17:47:00,82.0,47.5,29.87,North,0,15.0,15.0,30,0.00,CLR,SCT,0.00,WeatherDisplay:10.37,2013-07-06 00:47:00,
2013-07-05 17:52:00,81.7,47.2,29.87,North,0,12.7,12.7,30,0.00,CLR,SCT,0.00,WeatherDisplay:10.37,2013-07-06 00:52:00,
2013-07-05 17:57:00,82.0,47.5,29.87,North,0,11.5,11.5,30,0.00,CLR,SCT,0.00,WeatherDisplay:10.37,2013-07-06 00:57:00,
2013-07-05 18:02:00,81.7,47.2,29.87,North,7,12.7,12.7,30,0.00,CLR,SCT,0.00,WeatherDisplay:10.37,2013-07-06 01:02:00,
2013-07-05 18:07:00,81.9,47.4,29.87,North,0,10.4,10.4,30,0.00,CLR,SCT,0.00,WeatherDisplay:10.37,2013-07-06 01:07:00,
2013-07-05 18:12:00,81.9,47.4,29.87,North,0,14.5,14.5,30,0.00,CLR,SCT,0.00,WeatherDisplay:10.37,2013-07-06 01:12:00,
2013-07-05 18:17:00,81.3,46.9,29.87,North,0,13.2,13.2,30,0.00,CLR,SCT,0.00,WeatherDisplay:10.37,2013-07-06 01:17:00,
2013-07-05 18:18:00,81.3,46.9,29.87,NNE,25,12.7,12.7,30,0.00,CLR,SCT,0.00,WeatherDisplay:10.37,2013-07-06 01:18:00,
2013-07-05 18:23:00,81.0,46.6,29.87,North,0,12.7,12.7,30,0.00,CLR,SCT,0.00,WeatherDisplay:10.37,2013-07-06 01:23:00,
2013-07-05 18:28:00,80.6,46.3,29.87,NNE,20,12.7,12.7,30,0.00,CLR,SCT,0.00,WeatherDisplay:10.37,2013-07-06 01:28:00,
2013-07-05 18:33:00,80.6,46.3,29.87,North,0,15.0,15.0,30,0.00,CLR,SCT,0.00,WeatherDisplay:10.37,2013-07-06 01:33:00,
2013-07-05 18:38:00,80.6,46.3,29.87,North,0,12.7,12.7,30,0.00,CLR,SCT,0.00,WeatherDisplay:10.37,2013-07-06 01:38:00,
2013-07-05 18:43:00,80.1,45.8,29.84,North,0,12.7,13.2,30,0.00,CLR,SCT,0.00,WeatherDisplay:10.37,2013-07-06 01:43:00,
2013-07-05 18:48:00,79.3,45.2,29.84,North,0,11.5,11.5,30,0.00,CLR,SCT,0.00,WeatherDisplay:10.37,2013-07-06 01:48:00,
2013-07-05 18:53:00,79.2,45.0,29.84,North,0,10.9,10.9,30,0.00,CLR,SCT,0.00,WeatherDisplay:10.37,2013-07-06 01:53:00,
2013-07-05 18:58:00,78.6,45.4,29.87,North,0,12.7,12.7,31,0.00,CLR,SCT,0.00,WeatherDisplay:10.37,2013-07-06 01:58:00,
2013-07-05 19:03:00,77.9,44.8,29.87,North,0,11.5,11.5,31,0.00,CLR,SCT,0.00,WeatherDisplay:10.37,2013-07-06 02:03:00,
2013-07-05 19:09:00,77.5,44.5,29.87,NNE,22,15.0,15.0,31,0.00,CLR,SCT,0.00,WeatherDisplay:10.37,2013-07-06 02:09:00,
2013-07-05 19:14:00,77.2,44.2,29.87,North,0,11.5,11.5,31,0.00,CLR,SCT,0.00,WeatherDisplay:10.37,2013-07-06 02:14:00,
2013-07-05 19:19:00,76.8,43.9,29.87,NNE,31,13.8,13.8,31,0.00,CLR,SCT,0.00,WeatherDisplay:10.37,2013-07-06 02:19:00,
2013-07-05 19:24:00,76.5,43.6,29.87,North,0,13.6,13.6,31,0.00,CLR,SCT,0.00,WeatherDisplay:10.37,2013-07-06 02:24:00,
2013-07-05 19:29:00,76.1,43.3,29.87,North,0,11.5,11.5,31,0.00,CLR,SCT,0.00,WeatherDisplay:10.37,2013-07-06 02:29:00,
2013-07-05 19:34:00,75.7,42.9,29.87,North,0,15.0,15.0,31,0.00,CLR,SCT,0.00,WeatherDisplay:10.37,2013-07-06 02:34:00,
2013-07-05 19:39:00,75.2,42.5,29.87,North,0,12.7,12.7,31,0.00,CLR,SCT,0.00,WeatherDisplay:10.37,2013-07-06 02:39:00,
2013-07-05 19:44:00,74.7,42.0,29.87,North,0,16.1,16.1,31,0.00,CLR,SCT,0.00,WeatherDisplay:10.37,2013-07-06 02:44:00,
2013-07-05 19:49:00,74.3,41.7,29.87,North,0,12.7,12.7,31,0.00,CLR,SCT,0.00,WeatherDisplay:10.37,2013-07-06 02:49:00,
2013-07-05 19:55:00,73.9,41.4,29.87,North,9,15.0,15.0,31,0.00,CLR,SCT,0.00,WeatherDisplay:10.37,2013-07-06 02:55:00,
2013-07-05 20:00:00,73.0,41.4,29.87,North,0,19.6,19.6,32,0.00,CLR,SCT,0.00,WeatherDisplay:10.37,2013-07-06 03:00:00,
2013-07-05 20:05:00,72.7,41.1,29.87,NNE,21,15.0,15.0,32,0.00,CLR,SCT,0.00,WeatherDisplay:10.37,2013-07-06 03:05:00,
2013-07-05 20:10:00,72.7,41.1,29.87,NNE,19,12.7,12.7,32,0.00,CLR,SCT,0.00,WeatherDisplay:10.37,2013-07-06 03:10:00,
2013-07-05 20:15:00,72.3,40.8,29.87,NNE,14,12.7,12.7,32,0.00,CLR,SCT,0.00,WeatherDisplay:10.37,2013-07-06 03:15:00,
2013-07-05 20:20:00,72.1,40.6,29.87,NE,34,10.4,10.4,32,0.00,CLR,SCT,0.00,WeatherDisplay:10.37,2013-07-06 03:20:00,
2013-07-05 20:25:00,71.8,40.3,29.87,NNE,15,12.7,12.7,32,0.00,CLR,SCT,0.00,WeatherDisplay:10.37,2013-07-06 03:25:00,
2013-07-05 20:30:00,71.2,39.9,29.87,NNE,23,17.9,17.9,32,0.00,CLR,SCT,0.00,WeatherDisplay:10.37,2013-07-06 03:30:00,
2013-07-05 20:36:00,71.1,39.7,29.87,North,0,8.1,8.1,32,0.00,CLR,SCT,0.00,WeatherDisplay:10.37,2013-07-06 03:36:00,
2013-07-05 20:41:00,70.9,39.5,29.87,North,0,10.4,10.4,32,0.00,CLR,SCT,0.00,WeatherDisplay:10.37,2013-07-06 03:41:00,
2013-07-05 20:46:00,70.7,39.4,29.87,NNE,19,6.9,6.9,32,0.00,CLR,SCT,0.00,WeatherDisplay:10.37,2013-07-06 03:46:00,
2013-07-05 20:51:00,70.5,39.2,29.87,NNE,15,8.1,8.1,32,0.00,CLR,SCT,0.00,WeatherDisplay:10.37,2013-07-06 03:51:00,
2013-07-05 20:56:00,70.3,39.1,29.87,NNE,19,5.8,5.8,32,0.00,CLR,SCT,0.00,WeatherDisplay:10.37,2013-07-06 03:56:00,
2013-07-05 21:01:00,69.8,38.6,29.87,NNE,29,8.1,8.1,32,0.00,CLR,SCT,0.00,WeatherDisplay:10.37,2013-07-06 04:01:00,
2013-07-05 21:02:00,69.8,38.6,29.87,NNE,33,8.1,8.1,32,0.00,CLR,SCT,0.00,WeatherDisplay:10.37,2013-07-06 04:02:00,
2013-07-05 21:07:00,69.3,38.9,29.87,NE,41,9.2,9.2,33,0.00,CLR,SCT,0.00,WeatherDisplay:10.37,2013-07-06 04:07:00,
2013-07-05 21:12:00,68.9,38.6,29.87,NNE,19,5.8,5.8,33,0.00,CLR,SCT,0.00,WeatherDisplay:10.37,2013-07-06 04:12:00,
2013-07-05 21:18:00,68.4,38.1,29.87,NE,34,10.4,10.4,33,0.00,CLR,SCT,0.00,WeatherDisplay:10.37,2013-07-06 04:18:00,
2013-07-05 21:23:00,68.0,37.8,29.87,NNE,15,10.4,10.4,33,0.00,CLR,SCT,0.00,WeatherDisplay:10.37,2013-07-06 04:23:00,
2013-07-05 21:28:00,67.6,37.5,29.87,NNE,15,5.8,5.8,33,0.00,CLR,SCT,0.00,WeatherDisplay:10.37,2013-07-06 04:28:00,
2013-07-05 21:33:00,67.1,37.0,29.87,North,0,11.5,11.5,33,0.00,CLR,SCT,0.00,WeatherDisplay:10.37,2013-07-06 04:33:00,
2013-07-05 21:38:00,66.9,36.9,29.87,NNE,18,5.8,5.8,33,0.00,CLR,SCT,0.00,WeatherDisplay:10.37,2013-07-06 04:38:00,
2013-07-05 21:43:00,66.4,36.4,29.90,North,0,9.2,9.2,33,0.00,CLR,SCT,0.00,WeatherDisplay:10.37,2013-07-06 04:43:00,
2013-07-05 21:49:00,66.0,36.1,29.90,North,0,5.8,6.3,33,0.00,CLR,SCT,0.00,WeatherDisplay:10.37,2013-07-06 04:49:00,
2013-07-05 21:54:00,65.8,35.9,29.90,NNE,18,9.2,9.2,33,0.00,CLR,SCT,0.00,WeatherDisplay:10.37,2013-07-06 04:54:00,
2013-07-05 21:59:00,65.5,35.6,29.90,North,0,10.4,10.4,33,0.00,CLR,SCT,0.00,WeatherDisplay:10.37,2013-07-06 04:59:00,
2013-07-05 22:04:00,65.1,35.3,29.90,North,0,6.9,6.9,33,0.00,CLR,SCT,0.00,WeatherDisplay:10.37,2013-07-06 05:04:00,
2013-07-05 22:09:00,64.8,35.0,29.90,North,0,8.1,8.1,33,0.00,CLR,SCT,0.00,WeatherDisplay:10.37,2013-07-06 05:09:00,
2013-07-05 22:14:00,64.4,34.6,29.90,North,0,6.3,6.3,33,0.00,CLR,SCT,0.00,WeatherDisplay:10.37,2013-07-06 05:14:00,
2013-07-05 22:19:00,64.0,35.1,29.90,North,0,9.2,9.2,34,0.00,CLR,SCT,0.00,WeatherDisplay:10.37,2013-07-06 05:19:00,
2013-07-05 22:24:00,63.9,34.9,29.90,North,0,9.2,9.2,34,0.00,CLR,SCT,0.00,WeatherDisplay:10.37,2013-07-06 05:24:00,
2013-07-05 22:29:00,63.5,34.6,29.90,North,0,8.1,8.1,34,0.00,CLR,SCT,0.00,WeatherDisplay:10.37,2013-07-06 05:29:00,
2013-07-05 22:34:00,63.1,34.3,29.90,North,0,5.8,5.8,34,0.00,CLR,SCT,0.00,WeatherDisplay:10.37,2013-07-06 05:34:00,
2013-07-05 22:39:00,63.0,34.1,29.90,NNE,15,5.8,5.8,34,0.00,CLR,SCT,0.00,WeatherDisplay:10.37,2013-07-06 05:39:00,
2013-07-05 22:45:00,62.6,33.8,29.90,North,0,5.8,5.8,34,0.00,CLR,SCT,0.00,WeatherDisplay:10.37,2013-07-06 05:45:00,
2013-07-05 22:50:00,62.2,33.5,29.90,North,0,3.5,3.5,34,0.00,CLR,SCT,0.00,WeatherDisplay:10.37,2013-07-06 05:50:00,
2013-07-05 22:55:00,61.9,33.2,29.90,North,0,3.6,3.6,34,0.00,CLR,SCT,0.00,WeatherDisplay:10.37,2013-07-06 05:55:00,
2013-07-05 23:00:00,61.7,33.0,29.93,North,0,3.5,3.5,34,0.00,CLR,SCT,0.00,WeatherDisplay:10.37,2013-07-06 06:00:00,
2013-07-05 23:05:00,61.3,32.7,29.93,North,0,8.1,8.1,34,0.00,CLR,SCT,0.00,WeatherDisplay:10.37,2013-07-06 06:05:00,
2013-07-05 23:10:00,60.8,32.2,29.93,North,0,8.1,8.1,34,0.00,CLR,SCT,0.00,WeatherDisplay:10.37,2013-07-06 06:10:00,
2013-07-05 23:15:00,60.6,32.8,29.90,North,0,8.1,8.1,35,0.00,CLR,SCT,0.00,WeatherDisplay:10.37,2013-07-06 06:15:00,
2013-07-05 23:21:00,60.3,32.5,29.90,North,0,5.8,5.8,35,0.00,CLR,SCT,0.00,WeatherDisplay:10.37,2013-07-06 06:21:00,
2013-07-05 23:26:00,60.1,32.3,29.90,North,0,5.8,5.8,35,0.00,CLR,SCT,0.00,WeatherDisplay:10.37,2013-07-06 06:26:00,
2013-07-05 23:31:00,60.1,32.3,29.93,NNE,16,5.8,5.8,35,0.00,CLR,SCT,0.00,WeatherDisplay:10.37,2013-07-06 06:31:00,
2013-07-05 23:36:00,59.7,32.0,29.93,North,0,5.8,5.8,35,0.00,CLR,SCT,0.00,WeatherDisplay:10.37,2013-07-06 06:36:00,
2013-07-05 23:41:00,59.5,31.8,29.90,North,0,5.8,5.8,35,0.00,CLR,SCT,0.00,WeatherDisplay:10.37,2013-07-06 06:41:00,
2013-07-05 23:46:00,59.4,31.7,29.90,North,0,9.2,9.2,35,0.00,CLR,SCT,0.00,WeatherDisplay:10.37,2013-07-06 06:46:00,
2013-07-05 23:51:00,59.2,31.5,29.90,North,0,5.8,5.8,35,0.00,CLR,SCT,0.00,WeatherDisplay:10.37,2013-07-06 06:51:00,
2013-07-05 23:56:00,58.8,31.2,29.90,North,0,5.8,5.8,35,0.00,CLR,SCT,0.00,WeatherDisplay:10.37,2013-07-06 06:56:00,